sensor_id;sensor_type;location;lat;lon;timestamp;P1;durP1;ratioP1;P2;durP2;ratioP2
60372;SDS011;46216;52.220;5.134;2023-03-05T00:01:09;9.75;;;3.05;;
60372;SDS011;46216;52.220;5.134;2023-03-05T00:03:39;7.00;;;2.92;;
60372;SDS011;46216;52.220;5.134;2023-03-05T00:06:05;9.20;;;3.10;;
60372;SDS011;46216;52.220;5.134;2023-03-05T00:08:31;7.63;;;2.65;;
60372;SDS011;46216;52.220;5.134;2023-03-05T00:10:57;7.30;;;2.60;;
60372;SDS011;46216;52.220;5.134;2023-03-05T00:13:24;9.70;;;2.65;;
60372;SDS011;46216;52.220;5.134;2023-03-05T00:15:50;9.27;;;3.00;;
60372;SDS011;46216;52.220;5.134;2023-03-05T00:18:15;5.65;;;2.60;;
60372;SDS011;46216;52.220;5.134;2023-03-05T00:20:41;7.15;;;2.55;;
60372;SDS011;46216;52.220;5.134;2023-03-05T00:23:06;8.65;;;2.92;;
60372;SDS011;46216;52.220;5.134;2023-03-05T00:25:33;10.25;;;2.28;;
60372;SDS011;46216;52.220;5.134;2023-03-05T00:28:00;7.03;;;2.33;;
60372;SDS011;46216;52.220;5.134;2023-03-05T00:30:26;7.75;;;2.42;;
60372;SDS011;46216;52.220;5.134;2023-03-05T00:32:51;9.50;;;2.53;;
60372;SDS011;46216;52.220;5.134;2023-03-05T00:35:16;8.77;;;2.47;;
60372;SDS011;46216;52.220;5.134;2023-03-05T00:37:42;6.95;;;2.35;;
60372;SDS011;46216;52.220;5.134;2023-03-05T00:40:07;7.78;;;2.30;;
60372;SDS011;46216;52.220;5.134;2023-03-05T00:42:33;9.07;;;2.28;;
60372;SDS011;46216;52.220;5.134;2023-03-05T00:45:02;8.07;;;2.35;;
60372;SDS011;46216;52.220;5.134;2023-03-05T00:47:29;9.73;;;2.25;;
60372;SDS011;46216;52.220;5.134;2023-03-05T00:49:54;9.43;;;2.33;;
60372;SDS011;46216;52.220;5.134;2023-03-05T00:52:19;12.32;;;2.15;;
60372;SDS011;46216;52.220;5.134;2023-03-05T00:54:44;8.45;;;2.10;;
60372;SDS011;46216;52.220;5.134;2023-03-05T00:57:10;6.78;;;2.17;;
60372;SDS011;46216;52.220;5.134;2023-03-05T00:59:35;7.15;;;2.17;;
60372;SDS011;46216;52.220;5.134;2023-03-05T01:02:00;11.93;;;2.78;;
60372;SDS011;46216;52.220;5.134;2023-03-05T01:04:26;10.23;;;2.42;;
60372;SDS011;46216;52.220;5.134;2023-03-05T01:06:51;7.05;;;2.38;;
60372;SDS011;46216;52.220;5.134;2023-03-05T01:09:16;7.85;;;2.60;;
60372;SDS011;46216;52.220;5.134;2023-03-05T01:11:42;9.00;;;2.40;;
60372;SDS011;46216;52.220;5.134;2023-03-05T01:14:07;11.25;;;2.30;;
60372;SDS011;46216;52.220;5.134;2023-03-05T01:16:33;12.52;;;2.65;;
60372;SDS011;46216;52.220;5.134;2023-03-05T01:18:58;5.38;;;2.80;;
60372;SDS011;46216;52.220;5.134;2023-03-05T01:21:24;9.50;;;2.60;;
60372;SDS011;46216;52.220;5.134;2023-03-05T01:23:49;8.35;;;3.00;;
60372;SDS011;46216;52.220;5.134;2023-03-05T01:26:14;11.63;;;3.25;;
60372;SDS011;46216;52.220;5.134;2023-03-05T01:28:40;11.30;;;2.75;;
60372;SDS011;46216;52.220;5.134;2023-03-05T01:31:06;14.70;;;3.42;;
60372;SDS011;46216;52.220;5.134;2023-03-05T01:33:32;12.63;;;3.53;;
60372;SDS011;46216;52.220;5.134;2023-03-05T01:35:58;8.73;;;2.75;;
60372;SDS011;46216;52.220;5.134;2023-03-05T01:38:23;12.10;;;3.05;;
60372;SDS011;46216;52.220;5.134;2023-03-05T01:40:48;10.18;;;3.33;;
60372;SDS011;46216;52.220;5.134;2023-03-05T01:48:43;8.68;;;2.72;;
60372;SDS011;46216;52.220;5.134;2023-03-05T01:51:11;11.88;;;2.88;;
60372;SDS011;46216;52.220;5.134;2023-03-05T01:53:37;9.60;;;3.65;;
60372;SDS011;46216;52.220;5.134;2023-03-05T01:56:03;11.30;;;3.10;;
60372;SDS011;46216;52.220;5.134;2023-03-05T01:58:29;7.80;;;3.03;;
60372;SDS011;46216;52.220;5.134;2023-03-05T02:00:55;10.35;;;3.00;;
60372;SDS011;46216;52.220;5.134;2023-03-05T02:03:21;10.57;;;3.30;;
60372;SDS011;46216;52.220;5.134;2023-03-05T02:05:47;13.30;;;2.90;;
60372;SDS011;46216;52.220;5.134;2023-03-05T02:08:17;11.13;;;3.00;;
60372;SDS011;46216;52.220;5.134;2023-03-05T02:10:45;8.07;;;2.55;;
60372;SDS011;46216;52.220;5.134;2023-03-05T02:13:14;9.77;;;2.53;;
60372;SDS011;46216;52.220;5.134;2023-03-05T02:15:42;5.65;;;2.10;;
60372;SDS011;46216;52.220;5.134;2023-03-05T02:18:07;7.07;;;1.90;;
60372;SDS011;46216;52.220;5.134;2023-03-05T02:23:14;10.55;;;1.98;;
60372;SDS011;46216;52.220;5.134;2023-03-05T02:25:41;6.07;;;2.10;;
60372;SDS011;46216;52.220;5.134;2023-03-05T02:30:41;7.70;;;2.17;;
60372;SDS011;46216;52.220;5.134;2023-03-05T02:33:06;6.32;;;1.80;;
60372;SDS011;46216;52.220;5.134;2023-03-05T02:35:32;6.93;;;1.80;;
60372;SDS011;46216;52.220;5.134;2023-03-05T02:37:57;6.40;;;1.80;;
60372;SDS011;46216;52.220;5.134;2023-03-05T02:40:23;5.57;;;1.73;;
60372;SDS011;46216;52.220;5.134;2023-03-05T02:42:49;5.95;;;1.52;;
60372;SDS011;46216;52.220;5.134;2023-03-05T02:45:14;6.75;;;2.13;;
60372;SDS011;46216;52.220;5.134;2023-03-05T02:47:40;5.45;;;1.52;;
60372;SDS011;46216;52.220;5.134;2023-03-05T02:50:06;8.38;;;2.08;;
60372;SDS011;46216;52.220;5.134;2023-03-05T02:52:34;6.60;;;1.63;;
60372;SDS011;46216;52.220;5.134;2023-03-05T02:54:59;7.35;;;1.98;;
60372;SDS011;46216;52.220;5.134;2023-03-05T02:57:25;6.72;;;1.77;;
60372;SDS011;46216;52.220;5.134;2023-03-05T02:59:50;9.90;;;2.20;;
60372;SDS011;46216;52.220;5.134;2023-03-05T03:02:15;5.32;;;1.88;;
60372;SDS011;46216;52.220;5.134;2023-03-05T03:04:42;6.97;;;1.90;;
60372;SDS011;46216;52.220;5.134;2023-03-05T03:07:08;6.50;;;1.90;;
60372;SDS011;46216;52.220;5.134;2023-03-05T03:09:35;5.43;;;2.00;;
60372;SDS011;46216;52.220;5.134;2023-03-05T03:12:01;4.35;;;1.73;;
60372;SDS011;46216;52.220;5.134;2023-03-05T03:14:29;9.20;;;2.47;;
60372;SDS011;46216;52.220;5.134;2023-03-05T03:16:55;8.18;;;2.25;;
60372;SDS011;46216;52.220;5.134;2023-03-05T03:19:22;6.88;;;2.20;;
60372;SDS011;46216;52.220;5.134;2023-03-05T03:21:47;7.72;;;2.17;;
60372;SDS011;46216;52.220;5.134;2023-03-05T03:24:14;10.65;;;2.30;;
60372;SDS011;46216;52.220;5.134;2023-03-05T03:26:39;8.32;;;2.10;;
60372;SDS011;46216;52.220;5.134;2023-03-05T03:29:05;9.32;;;2.20;;
60372;SDS011;46216;52.220;5.134;2023-03-05T03:31:30;9.88;;;2.83;;
60372;SDS011;46216;52.220;5.134;2023-03-05T03:33:55;8.13;;;2.45;;
60372;SDS011;46216;52.220;5.134;2023-03-05T03:36:21;6.22;;;2.08;;
60372;SDS011;46216;52.220;5.134;2023-03-05T03:38:46;4.72;;;1.73;;
60372;SDS011;46216;52.220;5.134;2023-03-05T03:41:11;8.95;;;2.03;;
60372;SDS011;46216;52.220;5.134;2023-03-05T03:43:37;8.95;;;2.38;;
60372;SDS011;46216;52.220;5.134;2023-03-05T03:46:05;7.15;;;1.90;;
60372;SDS011;46216;52.220;5.134;2023-03-05T03:48:31;5.05;;;1.77;;
60372;SDS011;46216;52.220;5.134;2023-03-05T03:50:57;7.80;;;1.88;;
60372;SDS011;46216;52.220;5.134;2023-03-05T03:53:22;5.80;;;1.80;;
60372;SDS011;46216;52.220;5.134;2023-03-05T03:55:48;7.85;;;1.98;;
60372;SDS011;46216;52.220;5.134;2023-03-05T03:58:13;5.93;;;1.80;;
60372;SDS011;46216;52.220;5.134;2023-03-05T04:00:39;7.05;;;1.77;;
60372;SDS011;46216;52.220;5.134;2023-03-05T04:03:04;7.05;;;1.85;;
60372;SDS011;46216;52.220;5.134;2023-03-05T04:05:31;6.15;;;1.65;;
60372;SDS011;46216;52.220;5.134;2023-03-05T04:07:56;4.50;;;1.48;;
60372;SDS011;46216;52.220;5.134;2023-03-05T04:10:22;6.13;;;1.88;;
60372;SDS011;46216;52.220;5.134;2023-03-05T04:12:48;3.95;;;1.67;;
60372;SDS011;46216;52.220;5.134;2023-03-05T04:15:13;5.55;;;1.60;;
60372;SDS011;46216;52.220;5.134;2023-03-05T04:17:39;4.00;;;1.90;;
60372;SDS011;46216;52.220;5.134;2023-03-05T04:20:04;5.63;;;1.77;;
60372;SDS011;46216;52.220;5.134;2023-03-05T04:22:33;6.40;;;1.83;;
60372;SDS011;46216;52.220;5.134;2023-03-05T04:24:59;6.15;;;1.95;;
60372;SDS011;46216;52.220;5.134;2023-03-05T04:27:24;6.47;;;1.90;;
60372;SDS011;46216;52.220;5.134;2023-03-05T04:29:49;5.25;;;1.70;;
60372;SDS011;46216;52.220;5.134;2023-03-05T04:32:15;7.20;;;1.98;;
60372;SDS011;46216;52.220;5.134;2023-03-05T04:34:46;5.75;;;1.65;;
60372;SDS011;46216;52.220;5.134;2023-03-05T04:37:12;7.32;;;2.00;;
60372;SDS011;46216;52.220;5.134;2023-03-05T04:39:37;7.05;;;1.92;;
60372;SDS011;46216;52.220;5.134;2023-03-05T04:42:03;8.13;;;2.13;;
60372;SDS011;46216;52.220;5.134;2023-03-05T04:44:28;8.30;;;2.20;;
60372;SDS011;46216;52.220;5.134;2023-03-05T04:46:53;7.50;;;2.20;;
60372;SDS011;46216;52.220;5.134;2023-03-05T04:49:19;6.60;;;2.20;;
60372;SDS011;46216;52.220;5.134;2023-03-05T04:51:44;6.93;;;2.13;;
60372;SDS011;46216;52.220;5.134;2023-03-05T04:54:10;6.38;;;2.30;;
60372;SDS011;46216;52.220;5.134;2023-03-05T04:56:35;9.13;;;2.33;;
60372;SDS011;46216;52.220;5.134;2023-03-05T04:59:00;12.02;;;2.58;;
60372;SDS011;46216;52.220;5.134;2023-03-05T05:01:26;7.45;;;2.45;;
60372;SDS011;46216;52.220;5.134;2023-03-05T05:03:51;9.85;;;2.78;;
60372;SDS011;46216;52.220;5.134;2023-03-05T05:06:16;4.82;;;2.25;;
60372;SDS011;46216;52.220;5.134;2023-03-05T05:08:42;5.22;;;2.50;;
60372;SDS011;46216;52.220;5.134;2023-03-05T05:11:09;5.75;;;2.90;;
60372;SDS011;46216;52.220;5.134;2023-03-05T05:13:37;6.25;;;2.80;;
60372;SDS011;46216;52.220;5.134;2023-03-05T05:16:05;7.55;;;2.72;;
60372;SDS011;46216;52.220;5.134;2023-03-05T05:18:31;5.45;;;2.17;;
60372;SDS011;46216;52.220;5.134;2023-03-05T05:20:56;6.13;;;2.45;;
60372;SDS011;46216;52.220;5.134;2023-03-05T05:23:22;4.85;;;2.10;;
60372;SDS011;46216;52.220;5.134;2023-03-05T05:25:54;10.30;;;2.50;;
60372;SDS011;46216;52.220;5.134;2023-03-05T05:28:21;8.25;;;2.33;;
60372;SDS011;46216;52.220;5.134;2023-03-05T05:30:46;5.55;;;2.20;;
60372;SDS011;46216;52.220;5.134;2023-03-05T05:33:11;6.82;;;2.20;;
60372;SDS011;46216;52.220;5.134;2023-03-05T05:35:38;5.60;;;2.00;;
60372;SDS011;46216;52.220;5.134;2023-03-05T05:38:03;5.93;;;1.90;;
60372;SDS011;46216;52.220;5.134;2023-03-05T05:40:29;4.68;;;2.45;;
60372;SDS011;46216;52.220;5.134;2023-03-05T05:42:54;3.67;;;2.35;;
60372;SDS011;46216;52.220;5.134;2023-03-05T05:45:19;9.85;;;2.60;;
60372;SDS011;46216;52.220;5.134;2023-03-05T05:47:45;6.15;;;2.45;;
60372;SDS011;46216;52.220;5.134;2023-03-05T05:50:11;3.97;;;2.13;;
60372;SDS011;46216;52.220;5.134;2023-03-05T05:52:38;4.85;;;2.10;;
60372;SDS011;46216;52.220;5.134;2023-03-05T05:55:04;4.05;;;2.10;;
60372;SDS011;46216;52.220;5.134;2023-03-05T05:57:30;4.55;;;2.13;;
60372;SDS011;46216;52.220;5.134;2023-03-05T05:59:55;4.63;;;1.85;;
60372;SDS011;46216;52.220;5.134;2023-03-05T06:02:21;3.60;;;2.33;;
60372;SDS011;46216;52.220;5.134;2023-03-05T06:04:46;6.43;;;2.40;;
60372;SDS011;46216;52.220;5.134;2023-03-05T06:07:11;7.03;;;2.22;;
60372;SDS011;46216;52.220;5.134;2023-03-05T06:09:37;3.35;;;1.90;;
60372;SDS011;46216;52.220;5.134;2023-03-05T06:12:02;7.07;;;1.85;;
60372;SDS011;46216;52.220;5.134;2023-03-05T06:14:28;5.15;;;2.00;;
60372;SDS011;46216;52.220;5.134;2023-03-05T06:16:53;3.53;;;1.83;;
60372;SDS011;46216;52.220;5.134;2023-03-05T06:19:19;4.32;;;1.80;;
60372;SDS011;46216;52.220;5.134;2023-03-05T06:21:44;6.38;;;1.98;;
60372;SDS011;46216;52.220;5.134;2023-03-05T06:24:09;3.78;;;1.75;;
60372;SDS011;46216;52.220;5.134;2023-03-05T06:26:35;5.72;;;2.20;;
60372;SDS011;46216;52.220;5.134;2023-03-05T06:29:00;3.30;;;1.88;;
60372;SDS011;46216;52.220;5.134;2023-03-05T06:31:26;4.50;;;1.98;;
60372;SDS011;46216;52.220;5.134;2023-03-05T06:33:55;5.75;;;1.90;;
60372;SDS011;46216;52.220;5.134;2023-03-05T06:36:23;5.35;;;2.22;;
60372;SDS011;46216;52.220;5.134;2023-03-05T06:38:50;3.33;;;1.80;;
60372;SDS011;46216;52.220;5.134;2023-03-05T06:41:17;5.55;;;1.60;;
60372;SDS011;46216;52.220;5.134;2023-03-05T06:43:45;4.38;;;1.40;;
60372;SDS011;46216;52.220;5.134;2023-03-05T06:46:16;3.92;;;1.20;;
60372;SDS011;46216;52.220;5.134;2023-03-05T06:48:43;5.25;;;1.30;;
60372;SDS011;46216;52.220;5.134;2023-03-05T06:51:13;2.78;;;1.23;;
60372;SDS011;46216;52.220;5.134;2023-03-05T06:53:39;2.55;;;1.13;;
60372;SDS011;46216;52.220;5.134;2023-03-05T06:56:04;2.85;;;1.10;;
60372;SDS011;46216;52.220;5.134;2023-03-05T06:58:29;4.40;;;1.60;;
60372;SDS011;46216;52.220;5.134;2023-03-05T07:00:55;3.15;;;1.55;;
60372;SDS011;46216;52.220;5.134;2023-03-05T07:03:20;4.22;;;1.50;;
60372;SDS011;46216;52.220;5.134;2023-03-05T07:05:45;3.75;;;1.27;;
60372;SDS011;46216;52.220;5.134;2023-03-05T07:08:11;2.60;;;1.25;;
60372;SDS011;46216;52.220;5.134;2023-03-05T07:10:37;2.88;;;1.50;;
60372;SDS011;46216;52.220;5.134;2023-03-05T07:13:04;3.70;;;1.73;;
60372;SDS011;46216;52.220;5.134;2023-03-05T07:15:29;3.40;;;1.48;;
60372;SDS011;46216;52.220;5.134;2023-03-05T07:17:55;4.07;;;1.80;;
60372;SDS011;46216;52.220;5.134;2023-03-05T07:20:20;4.15;;;1.60;;
60372;SDS011;46216;52.220;5.134;2023-03-05T07:22:46;6.05;;;1.55;;
60372;SDS011;46216;52.220;5.134;2023-03-05T07:25:11;6.75;;;2.00;;
60372;SDS011;46216;52.220;5.134;2023-03-05T07:27:36;4.40;;;1.83;;
60372;SDS011;46216;52.220;5.134;2023-03-05T07:30:02;7.47;;;2.00;;
60372;SDS011;46216;52.220;5.134;2023-03-05T07:32:29;6.75;;;1.98;;
60372;SDS011;46216;52.220;5.134;2023-03-05T07:34:54;8.25;;;1.80;;
60372;SDS011;46216;52.220;5.134;2023-03-05T07:37:19;5.10;;;2.35;;
60372;SDS011;46216;52.220;5.134;2023-03-05T07:39:45;4.80;;;2.00;;
60372;SDS011;46216;52.220;5.134;2023-03-05T07:42:10;4.63;;;1.90;;
60372;SDS011;46216;52.220;5.134;2023-03-05T07:44:35;3.90;;;2.10;;
60372;SDS011;46216;52.220;5.134;2023-03-05T07:47:02;8.35;;;2.40;;
60372;SDS011;46216;52.220;5.134;2023-03-05T07:49:28;5.30;;;2.80;;
60372;SDS011;46216;52.220;5.134;2023-03-05T07:51:53;4.30;;;2.38;;
60372;SDS011;46216;52.220;5.134;2023-03-05T07:54:19;4.78;;;2.53;;
60372;SDS011;46216;52.220;5.134;2023-03-05T07:56:44;3.65;;;1.95;;
60372;SDS011;46216;52.220;5.134;2023-03-05T07:59:10;7.13;;;2.45;;
60372;SDS011;46216;52.220;5.134;2023-03-05T08:01:37;3.53;;;1.98;;
60372;SDS011;46216;52.220;5.134;2023-03-05T08:04:03;5.13;;;2.10;;
60372;SDS011;46216;52.220;5.134;2023-03-05T08:06:30;4.13;;;2.05;;
60372;SDS011;46216;52.220;5.134;2023-03-05T08:08:56;4.85;;;2.03;;
60372;SDS011;46216;52.220;5.134;2023-03-05T08:11:22;5.10;;;2.13;;
60372;SDS011;46216;52.220;5.134;2023-03-05T08:13:47;3.33;;;2.08;;
60372;SDS011;46216;52.220;5.134;2023-03-05T08:16:15;4.90;;;2.00;;
60372;SDS011;46216;52.220;5.134;2023-03-05T08:18:42;4.90;;;1.80;;
60372;SDS011;46216;52.220;5.134;2023-03-05T08:21:18;4.80;;;1.70;;
60372;SDS011;46216;52.220;5.134;2023-03-05T08:23:45;3.08;;;1.63;;
60372;SDS011;46216;52.220;5.134;2023-03-05T08:26:12;3.42;;;1.50;;
60372;SDS011;46216;52.220;5.134;2023-03-05T08:28:42;2.22;;;1.38;;
60372;SDS011;46216;52.220;5.134;2023-03-05T08:31:09;4.05;;;1.60;;
60372;SDS011;46216;52.220;5.134;2023-03-05T08:33:35;4.45;;;1.55;;
60372;SDS011;46216;52.220;5.134;2023-03-05T08:36:01;5.00;;;1.42;;
60372;SDS011;46216;52.220;5.134;2023-03-05T08:38:26;3.05;;;1.50;;
60372;SDS011;46216;52.220;5.134;2023-03-05T08:40:51;3.25;;;1.30;;
60372;SDS011;46216;52.220;5.134;2023-03-05T08:43:17;2.75;;;1.50;;
60372;SDS011;46216;52.220;5.134;2023-03-05T08:45:42;6.25;;;1.40;;
60372;SDS011;46216;52.220;5.134;2023-03-05T08:48:07;3.40;;;1.55;;
60372;SDS011;46216;52.220;5.134;2023-03-05T08:50:34;3.65;;;1.40;;
60372;SDS011;46216;52.220;5.134;2023-03-05T08:53:00;5.28;;;1.80;;
60372;SDS011;46216;52.220;5.134;2023-03-05T08:55:26;2.45;;;1.40;;
60372;SDS011;46216;52.220;5.134;2023-03-05T08:57:51;4.75;;;1.52;;
60372;SDS011;46216;52.220;5.134;2023-03-05T09:00:17;4.00;;;1.30;;
60372;SDS011;46216;52.220;5.134;2023-03-05T09:02:42;2.53;;;1.20;;
60372;SDS011;46216;52.220;5.134;2023-03-05T09:05:08;2.22;;;1.30;;
60372;SDS011;46216;52.220;5.134;2023-03-05T09:07:33;2.28;;;1.50;;
60372;SDS011;46216;52.220;5.134;2023-03-05T09:09:59;3.80;;;1.45;;
60372;SDS011;46216;52.220;5.134;2023-03-05T09:12:24;5.32;;;1.70;;
60372;SDS011;46216;52.220;5.134;2023-03-05T09:14:49;5.30;;;1.60;;
60372;SDS011;46216;52.220;5.134;2023-03-05T09:17:18;5.03;;;1.40;;
60372;SDS011;46216;52.220;5.134;2023-03-05T09:19:43;3.85;;;1.75;;
60372;SDS011;46216;52.220;5.134;2023-03-05T09:22:09;4.90;;;1.85;;
60372;SDS011;46216;52.220;5.134;2023-03-05T09:24:34;3.70;;;1.70;;
60372;SDS011;46216;52.220;5.134;2023-03-05T09:27:00;4.22;;;1.58;;
60372;SDS011;46216;52.220;5.134;2023-03-05T09:29:25;2.78;;;1.30;;
60372;SDS011;46216;52.220;5.134;2023-03-05T09:31:52;4.72;;;1.63;;
60372;SDS011;46216;52.220;5.134;2023-03-05T09:34:17;2.47;;;1.38;;
60372;SDS011;46216;52.220;5.134;2023-03-05T09:36:43;3.25;;;1.38;;
60372;SDS011;46216;52.220;5.134;2023-03-05T09:39:08;4.20;;;1.30;;
60372;SDS011;46216;52.220;5.134;2023-03-05T09:50:01;2.47;;;1.13;;
60372;SDS011;46216;52.220;5.134;2023-03-05T09:55:03;6.05;;;2.17;;
60372;SDS011;46216;52.220;5.134;2023-03-05T09:57:38;4.10;;;1.23;;
60372;SDS011;46216;52.220;5.134;2023-03-05T10:00:29;2.80;;;1.10;;
60372;SDS011;46216;52.220;5.134;2023-03-05T10:02:56;2.28;;;1.05;;
60372;SDS011;46216;52.220;5.134;2023-03-05T10:05:26;3.75;;;1.25;;
60372;SDS011;46216;52.220;5.134;2023-03-05T10:08:02;4.18;;;1.52;;
60372;SDS011;46216;52.220;5.134;2023-03-05T10:10:38;3.63;;;1.27;;
60372;SDS011;46216;52.220;5.134;2023-03-05T10:13:11;2.65;;;1.30;;
60372;SDS011;46216;52.220;5.134;2023-03-05T10:15:43;2.05;;;1.17;;
60372;SDS011;46216;52.220;5.134;2023-03-05T10:21:17;4.43;;;1.50;;
60372;SDS011;46216;52.220;5.134;2023-03-05T10:26:36;3.40;;;1.25;;
60372;SDS011;46216;52.220;5.134;2023-03-05T10:32:27;2.03;;;1.27;;
60372;SDS011;46216;52.220;5.134;2023-03-05T10:40:46;2.30;;;1.10;;
60372;SDS011;46216;52.220;5.134;2023-03-05T10:45:52;3.92;;;1.20;;
60372;SDS011;46216;52.220;5.134;2023-03-05T10:51:32;3.33;;;1.45;;
60372;SDS011;46216;52.220;5.134;2023-03-05T10:54:07;4.53;;;1.30;;
60372;SDS011;46216;52.220;5.134;2023-03-05T10:56:42;6.05;;;1.30;;
60372;SDS011;46216;52.220;5.134;2023-03-05T10:59:08;3.17;;;1.30;;
60372;SDS011;46216;52.220;5.134;2023-03-05T11:01:33;3.63;;;1.00;;
60372;SDS011;46216;52.220;5.134;2023-03-05T11:04:02;5.28;;;1.40;;
60372;SDS011;46216;52.220;5.134;2023-03-05T11:09:19;4.20;;;1.25;;
60372;SDS011;46216;52.220;5.134;2023-03-05T11:12:01;2.35;;;1.00;;
60372;SDS011;46216;52.220;5.134;2023-03-05T11:17:32;3.30;;;1.10;;
60372;SDS011;46216;52.220;5.134;2023-03-05T11:20:47;3.47;;;1.52;;
60372;SDS011;46216;52.220;5.134;2023-03-05T11:25:35;4.25;;;1.40;;
60372;SDS011;46216;52.220;5.134;2023-03-05T11:28:21;2.10;;;1.13;;
60372;SDS011;46216;52.220;5.134;2023-03-05T11:33:54;4.10;;;1.00;;
60372;SDS011;46216;52.220;5.134;2023-03-05T11:36:25;3.15;;;1.33;;
60372;SDS011;46216;52.220;5.134;2023-03-05T11:41:37;4.13;;;1.10;;
60372;SDS011;46216;52.220;5.134;2023-03-05T11:44:08;1.50;;;1.10;;
60372;SDS011;46216;52.220;5.134;2023-03-05T11:46:40;4.97;;;1.23;;
60372;SDS011;46216;52.220;5.134;2023-03-05T11:49:07;5.30;;;1.30;;
60372;SDS011;46216;52.220;5.134;2023-03-05T11:51:50;3.47;;;1.40;;
60372;SDS011;46216;52.220;5.134;2023-03-05T11:54:23;6.93;;;1.60;;
60372;SDS011;46216;52.220;5.134;2023-03-05T11:56:55;4.72;;;1.65;;
60372;SDS011;46216;52.220;5.134;2023-03-05T11:59:23;3.72;;;1.67;;
60372;SDS011;46216;52.220;5.134;2023-03-05T12:01:57;2.70;;;1.40;;
60372;SDS011;46216;52.220;5.134;2023-03-05T12:04:23;4.70;;;1.92;;
60372;SDS011;46216;52.220;5.134;2023-03-05T12:06:59;4.38;;;1.73;;
60372;SDS011;46216;52.220;5.134;2023-03-05T12:09:36;2.33;;;1.48;;
60372;SDS011;46216;52.220;5.134;2023-03-05T12:15:03;4.43;;;1.67;;
60372;SDS011;46216;52.220;5.134;2023-03-05T12:20:17;4.65;;;2.03;;
60372;SDS011;46216;52.220;5.134;2023-03-05T12:22:58;4.20;;;1.90;;
60372;SDS011;46216;52.220;5.134;2023-03-05T12:25:26;6.47;;;2.08;;
60372;SDS011;46216;52.220;5.134;2023-03-05T12:27:59;3.53;;;2.00;;
60372;SDS011;46216;52.220;5.134;2023-03-05T12:33:00;4.78;;;1.63;;
60372;SDS011;46216;52.220;5.134;2023-03-05T12:35:37;3.20;;;1.58;;
60372;SDS011;46216;52.220;5.134;2023-03-05T12:38:04;3.85;;;1.67;;
60372;SDS011;46216;52.220;5.134;2023-03-05T12:44:07;3.33;;;1.38;;
60372;SDS011;46216;52.220;5.134;2023-03-05T12:46:44;3.70;;;1.60;;
60372;SDS011;46216;52.220;5.134;2023-03-05T12:49:39;3.20;;;1.65;;
60372;SDS011;46216;52.220;5.134;2023-03-05T12:52:15;3.47;;;1.83;;
60372;SDS011;46216;52.220;5.134;2023-03-05T12:55:02;2.95;;;1.38;;
60372;SDS011;46216;52.220;5.134;2023-03-05T12:57:40;4.85;;;1.70;;
60372;SDS011;46216;52.220;5.134;2023-03-05T13:00:09;4.22;;;1.52;;
60372;SDS011;46216;52.220;5.134;2023-03-05T13:02:51;4.25;;;1.30;;
60372;SDS011;46216;52.220;5.134;2023-03-05T13:05:28;1.63;;;1.10;;
60372;SDS011;46216;52.220;5.134;2023-03-05T13:10:57;3.38;;;1.50;;
60372;SDS011;46216;52.220;5.134;2023-03-05T13:13:25;6.68;;;1.50;;
60372;SDS011;46216;52.220;5.134;2023-03-05T13:15:52;3.90;;;1.35;;
60372;SDS011;46216;52.220;5.134;2023-03-05T13:18:25;3.08;;;1.45;;
60372;SDS011;46216;52.220;5.134;2023-03-05T13:21:05;2.42;;;1.10;;
60372;SDS011;46216;52.220;5.134;2023-03-05T13:23:36;4.30;;;1.20;;
60372;SDS011;46216;52.220;5.134;2023-03-05T13:28:36;3.83;;;1.42;;
60372;SDS011;46216;52.220;5.134;2023-03-05T13:31:09;3.95;;;1.80;;
60372;SDS011;46216;52.220;5.134;2023-03-05T13:33:38;3.90;;;1.60;;
60372;SDS011;46216;52.220;5.134;2023-03-05T13:36:04;5.20;;;2.30;;
60372;SDS011;46216;52.220;5.134;2023-03-05T13:43:46;6.13;;;2.40;;
60372;SDS011;46216;52.220;5.134;2023-03-05T13:49:20;5.22;;;2.58;;
60372;SDS011;46216;52.220;5.134;2023-03-05T13:51:51;5.40;;;3.00;;
60372;SDS011;46216;52.220;5.134;2023-03-05T13:54:18;9.95;;;4.47;;
60372;SDS011;46216;52.220;5.134;2023-03-05T13:56:58;6.35;;;3.20;;
60372;SDS011;46216;52.220;5.134;2023-03-05T13:59:35;5.63;;;2.95;;
60372;SDS011;46216;52.220;5.134;2023-03-05T14:02:10;4.95;;;2.72;;
60372;SDS011;46216;52.220;5.134;2023-03-05T14:04:40;4.65;;;2.85;;
60372;SDS011;46216;52.220;5.134;2023-03-05T14:09:49;3.35;;;2.03;;
60372;SDS011;46216;52.220;5.134;2023-03-05T14:14:57;3.60;;;1.80;;
60372;SDS011;46216;52.220;5.134;2023-03-05T14:17:42;3.97;;;1.85;;
60372;SDS011;46216;52.220;5.134;2023-03-05T14:20:15;4.57;;;1.63;;
60372;SDS011;46216;52.220;5.134;2023-03-05T14:22:48;3.33;;;1.00;;
60372;SDS011;46216;52.220;5.134;2023-03-05T14:25:25;3.92;;;1.20;;
60372;SDS011;46216;52.220;5.134;2023-03-05T14:27:53;3.53;;;0.88;;
60372;SDS011;46216;52.220;5.134;2023-03-05T14:30:20;2.15;;;0.90;;
60372;SDS011;46216;52.220;5.134;2023-03-05T14:32:48;2.17;;;1.00;;
60372;SDS011;46216;52.220;5.134;2023-03-05T14:35:16;1.70;;;0.80;;
60372;SDS011;46216;52.220;5.134;2023-03-05T14:37:44;6.55;;;1.20;;
60372;SDS011;46216;52.220;5.134;2023-03-05T14:40:21;3.58;;;0.70;;
60372;SDS011;46216;52.220;5.134;2023-03-05T14:42:52;2.22;;;0.70;;
60372;SDS011;46216;52.220;5.134;2023-03-05T14:45:23;5.35;;;1.48;;
60372;SDS011;46216;52.220;5.134;2023-03-05T14:47:49;4.28;;;1.67;;
60372;SDS011;46216;52.220;5.134;2023-03-05T14:50:17;7.15;;;0.80;;
60372;SDS011;46216;52.220;5.134;2023-03-05T14:52:45;3.42;;;1.35;;
60372;SDS011;46216;52.220;5.134;2023-03-05T14:55:14;2.20;;;0.80;;
60372;SDS011;46216;52.220;5.134;2023-03-05T14:57:41;2.47;;;0.82;;
60372;SDS011;46216;52.220;5.134;2023-03-05T15:00:16;3.65;;;1.00;;
60372;SDS011;46216;52.220;5.134;2023-03-05T15:02:46;4.15;;;1.33;;
60372;SDS011;46216;52.220;5.134;2023-03-05T15:05:12;2.70;;;1.10;;
60372;SDS011;46216;52.220;5.134;2023-03-05T15:07:40;3.83;;;1.67;;
60372;SDS011;46216;52.220;5.134;2023-03-05T15:10:07;3.05;;;1.10;;
60372;SDS011;46216;52.220;5.134;2023-03-05T15:12:33;2.63;;;1.08;;
60372;SDS011;46216;52.220;5.134;2023-03-05T15:14:59;2.28;;;1.23;;
60372;SDS011;46216;52.220;5.134;2023-03-05T15:17:25;2.97;;;1.00;;
60372;SDS011;46216;52.220;5.134;2023-03-05T15:20:04;3.78;;;1.02;;
60372;SDS011;46216;52.220;5.134;2023-03-05T15:22:32;2.92;;;0.77;;
60372;SDS011;46216;52.220;5.134;2023-03-05T15:24:58;3.03;;;0.70;;
60372;SDS011;46216;52.220;5.134;2023-03-05T15:27:24;3.58;;;1.15;;
60372;SDS011;46216;52.220;5.134;2023-03-05T15:29:49;3.55;;;0.70;;
60372;SDS011;46216;52.220;5.134;2023-03-05T15:32:14;1.55;;;0.60;;
60372;SDS011;46216;52.220;5.134;2023-03-05T15:34:40;3.47;;;0.70;;
60372;SDS011;46216;52.220;5.134;2023-03-05T15:37:06;1.75;;;0.70;;
60372;SDS011;46216;52.220;5.134;2023-03-05T15:39:31;2.38;;;0.50;;
60372;SDS011;46216;52.220;5.134;2023-03-05T15:41:57;1.45;;;0.77;;
60372;SDS011;46216;52.220;5.134;2023-03-05T15:44:22;1.77;;;0.90;;
60372;SDS011;46216;52.220;5.134;2023-03-05T15:46:48;2.88;;;0.68;;
60372;SDS011;46216;52.220;5.134;2023-03-05T15:49:13;2.78;;;1.00;;
60372;SDS011;46216;52.220;5.134;2023-03-05T15:51:39;3.67;;;1.02;;
60372;SDS011;46216;52.220;5.134;2023-03-05T15:54:04;2.58;;;1.05;;
60372;SDS011;46216;52.220;5.134;2023-03-05T15:56:30;2.35;;;0.70;;
60372;SDS011;46216;52.220;5.134;2023-03-05T15:58:55;2.22;;;0.80;;
60372;SDS011;46216;52.220;5.134;2023-03-05T16:01:21;1.08;;;0.60;;
60372;SDS011;46216;52.220;5.134;2023-03-05T16:03:47;2.83;;;0.73;;
60372;SDS011;46216;52.220;5.134;2023-03-05T16:06:16;4.22;;;0.80;;
60372;SDS011;46216;52.220;5.134;2023-03-05T16:08:53;2.95;;;0.90;;
60372;SDS011;46216;52.220;5.134;2023-03-05T16:11:23;1.38;;;0.68;;
60372;SDS011;46216;52.220;5.134;2023-03-05T16:13:49;2.25;;;0.68;;
60372;SDS011;46216;52.220;5.134;2023-03-05T16:16:15;1.80;;;0.80;;
60372;SDS011;46216;52.220;5.134;2023-03-05T16:18:45;2.75;;;1.00;;